Bernardo de Irigoyen, Argentina
Current Conditions -  °F | °C
As of 9:00 PM on Friday 21 Nov 2014 (Local Time) from SARI Reporting Station
Thunderstorm Thunderstorm  
Wind Chill: 70°   Ceiling: 500
Heat Index: 70°   Visibility: 1.8mi
Dew Point: 70°   Wind: 6mph
Humidity: 100%   Direction: 160°SSE
Pressure: 29.88"   Gusts: NA
Location:  26.25°S, 53.65°W
Report Text: SARI 220000Z 16005KT 3000 TSRA BKN005OVC040 FEW045CB 21/21 Q1012
Loading
Personal Weather Stations






























Interactive Weather Map New forecast layout! Learn more

10-Day Weather Forecast

Advertisements
Track Severe Weather on mobile